createdAt,value
2023-03-07T00:02:17.206Z,23.42
2023-03-07T00:04:46.479Z,23.27
2023-03-07T00:07:14.359Z,17.50
2023-03-07T00:09:43.562Z,23.88
2023-03-07T00:12:12.018Z,28.42
2023-03-07T00:14:39.739Z,33.88
2023-03-07T00:17:07.558Z,31.58
2023-03-07T00:19:35.345Z,26.13
2023-03-07T00:22:03.136Z,25.40
2023-03-07T00:24:30.832Z,26.23
2023-03-07T00:27:03.396Z,28.38
2023-03-07T00:29:31.272Z,36.08
2023-03-07T00:31:59.003Z,27.23
2023-03-07T00:34:26.694Z,26.35
2023-03-07T00:36:54.591Z,24.08
2023-03-07T00:39:22.300Z,26.33
2023-03-07T00:41:52.646Z,22.63
2023-03-07T00:44:22.398Z,22.85
2023-03-07T00:46:50.064Z,21.00
2023-03-07T00:49:17.782Z,24.33
2023-03-07T00:51:47.821Z,23.98
2023-03-07T00:54:15.672Z,25.27
2023-03-07T00:56:43.385Z,23.35
2023-03-07T00:59:11.262Z,27.17
2023-03-07T01:01:40.302Z,32.38
2023-03-07T01:04:08.031Z,27.33
2023-03-07T01:06:36.366Z,34.08
2023-03-07T01:09:08.616Z,37.17
2023-03-07T01:11:37.691Z,32.67
2023-03-07T01:14:06.958Z,26.42
2023-03-07T01:16:36.319Z,26.33
2023-03-07T01:19:07.064Z,23.83
2023-03-07T01:21:37.563Z,22.50
2023-03-07T01:24:06.379Z,22.83
2023-03-07T01:26:34.694Z,22.45
2023-03-07T01:29:04.335Z,23.10
2023-03-07T01:31:32.616Z,21.40
2023-03-07T01:34:02.213Z,22.60
2023-03-07T01:36:33.564Z,21.55
2023-03-07T01:39:06.486Z,21.80
2023-03-07T01:41:34.724Z,24.30
2023-03-07T01:44:05.282Z,20.85
2023-03-07T01:46:44.917Z,20.10
2023-03-07T01:49:18.716Z,18.83
2023-03-07T01:51:50.408Z,22.48
2023-03-07T01:54:23.071Z,20.30
2023-03-07T01:56:51.505Z,19.95
2023-03-07T01:59:24.519Z,24.42
2023-03-07T02:01:53.102Z,19.98
2023-03-07T02:04:26.547Z,21.15
2023-03-07T02:06:55.616Z,23.02
2023-03-07T02:09:29.118Z,17.00
2023-03-07T02:11:57.866Z,18.58
2023-03-07T02:14:26.044Z,19.98
2023-03-07T02:16:54.496Z,20.60
2023-03-07T02:19:34.427Z,21.10
2023-03-07T02:22:10.660Z,19.17
2023-03-07T02:24:46.557Z,20.65
2023-03-07T02:27:15.992Z,19.20
2023-03-07T02:29:46.758Z,18.35
2023-03-07T02:32:18.545Z,20.73
2023-03-07T02:34:46.276Z,20.40
2023-03-07T02:37:17.482Z,18.05
2023-03-07T02:39:47.250Z,18.67
2023-03-07T02:42:19.865Z,18.88
2023-03-07T02:44:48.341Z,17.15
2023-03-07T02:47:15.999Z,21.17
2023-03-07T02:49:43.673Z,19.25
2023-03-07T02:52:11.328Z,17.45
2023-03-07T02:54:41.753Z,20.30
2023-03-07T02:57:10.555Z,18.77
2023-03-07T02:59:39.653Z,16.95
2023-03-07T03:02:07.379Z,20.08
2023-03-07T03:04:35.365Z,17.55
2023-03-07T03:07:03.194Z,19.90
2023-03-07T03:09:31.494Z,22.00
2023-03-07T03:11:59.803Z,20.05
2023-03-07T03:14:27.555Z,18.95
2023-03-07T03:16:56.625Z,19.42
2023-03-07T03:19:24.296Z,20.00
2023-03-07T03:21:52.063Z,21.98
2023-03-07T03:24:19.736Z,20.10
2023-03-07T03:26:47.428Z,22.13
2023-03-07T03:29:15.110Z,15.43
2023-03-07T03:31:42.793Z,16.63
2023-03-07T03:34:14.436Z,17.95
2023-03-07T03:36:42.101Z,16.65
2023-03-07T03:39:11.082Z,16.15
2023-03-07T03:41:39.133Z,20.20
2023-03-07T03:44:06.812Z,16.95
2023-03-07T03:46:37.006Z,18.30
2023-03-07T03:49:05.451Z,19.17
2023-03-07T03:51:34.575Z,15.35
2023-03-07T03:54:03.289Z,18.02
2023-03-07T03:56:30.990Z,16.88
2023-03-07T03:58:59.235Z,18.85
2023-03-07T04:01:30.183Z,17.90
2023-03-07T04:03:58.935Z,19.65
2023-03-07T04:06:28.446Z,21.58
2023-03-07T04:08:58.329Z,19.13
2023-03-07T04:11:28.174Z,17.27
2023-03-07T04:13:56.109Z,20.00
2023-03-07T04:16:24.055Z,20.55
2023-03-07T04:18:52.413Z,20.08
2023-03-07T04:21:20.662Z,21.88
2023-03-07T04:23:49.604Z,21.02
2023-03-07T04:26:18.773Z,21.25
2023-03-07T04:28:46.479Z,22.65
2023-03-07T04:31:16.014Z,21.70
2023-03-07T04:33:46.356Z,18.33
2023-03-07T04:36:14.901Z,20.10
2023-03-07T04:38:42.761Z,20.00
2023-03-07T04:41:13.696Z,22.02
2023-03-07T04:43:43.056Z,27.27
2023-03-07T04:46:12.169Z,21.55
2023-03-07T04:48:39.949Z,18.92
2023-03-07T04:51:08.086Z,19.42
2023-03-07T04:53:35.948Z,20.02
2023-03-07T04:56:06.546Z,22.13
2023-03-07T04:58:35.197Z,25.38
2023-03-07T05:01:05.542Z,21.80
2023-03-07T05:03:33.826Z,24.98
2023-03-07T05:06:03.889Z,20.58
2023-03-07T05:08:31.901Z,20.58
2023-03-07T05:10:59.650Z,26.63
2023-03-07T05:13:27.381Z,26.08
2023-03-07T05:15:57.148Z,25.38
2023-03-07T05:18:26.982Z,21.35
2023-03-07T05:20:54.810Z,24.08
2023-03-07T05:23:22.724Z,24.90
2023-03-07T05:25:51.277Z,25.52
2023-03-07T05:28:23.627Z,22.85
2023-03-07T05:30:54.399Z,22.58
2023-03-07T05:33:22.330Z,27.52
2023-03-07T05:35:52.193Z,22.95
2023-03-07T05:38:19.873Z,24.15
2023-03-07T05:40:47.633Z,26.15
2023-03-07T05:43:15.276Z,25.15
2023-03-07T05:45:42.923Z,25.77
2023-03-07T05:48:10.616Z,23.30
2023-03-07T05:50:39.437Z,26.17
2023-03-07T05:53:08.524Z,28.25
2023-03-07T05:55:36.378Z,25.73
2023-03-07T05:58:04.054Z,28.08
2023-03-07T06:00:31.927Z,24.45
2023-03-07T06:02:59.687Z,29.38
2023-03-07T06:05:27.394Z,27.20
2023-03-07T06:07:55.161Z,29.40
2023-03-07T06:10:24.468Z,24.60
2023-03-07T06:12:52.315Z,27.80
2023-03-07T06:15:20.476Z,25.92
2023-03-07T06:17:52.540Z,29.20
2023-03-07T06:20:21.755Z,26.75
2023-03-07T06:22:49.707Z,30.27
2023-03-07T06:25:17.709Z,28.95
2023-03-07T06:27:46.752Z,30.13
2023-03-07T06:30:15.028Z,26.45
2023-03-07T06:32:42.778Z,29.10
2023-03-07T06:35:11.338Z,25.92
2023-03-07T06:37:38.994Z,25.45
2023-03-07T06:40:09.543Z,28.08
2023-03-07T06:42:41.798Z,25.83
2023-03-07T06:45:11.430Z,29.25
2023-03-07T06:47:39.112Z,27.08
2023-03-07T06:50:07.864Z,31.15
2023-03-07T06:52:35.531Z,30.45
2023-03-07T06:55:03.548Z,30.73
2023-03-07T06:57:33.389Z,26.50
2023-03-07T07:00:01.107Z,27.65
2023-03-07T07:02:30.192Z,26.67
2023-03-07T07:05:01.454Z,30.30
2023-03-07T07:07:29.256Z,30.88
2023-03-07T07:09:59.669Z,27.33
2023-03-07T07:12:27.347Z,25.95
2023-03-07T07:14:55.028Z,26.58
2023-03-07T07:17:22.830Z,24.58
2023-03-07T07:19:51.877Z,27.67
2023-03-07T07:22:19.529Z,26.10
2023-03-07T07:24:47.156Z,28.10
2023-03-07T07:27:14.789Z,25.58
2023-03-07T07:29:42.448Z,25.35
2023-03-07T07:32:10.434Z,25.80
2023-03-07T07:34:38.181Z,29.83
2023-03-07T07:37:08.413Z,26.83
2023-03-07T07:39:36.109Z,30.20
2023-03-07T07:42:03.875Z,25.65
2023-03-07T07:44:31.884Z,24.92
2023-03-07T07:46:59.881Z,29.63
2023-03-07T07:49:27.657Z,22.67
2023-03-07T07:51:55.311Z,20.73
2023-03-07T07:54:24.391Z,24.60
2023-03-07T07:56:52.181Z,27.80
2023-03-07T07:59:21.580Z,22.63
2023-03-07T08:01:49.241Z,25.20
2023-03-07T08:04:16.940Z,23.02
2023-03-07T08:06:44.954Z,23.98
2023-03-07T08:09:12.773Z,19.25
2023-03-07T08:11:42.601Z,20.63
2023-03-07T08:14:10.456Z,22.58
2023-03-07T08:16:38.168Z,18.58
2023-03-07T08:19:05.972Z,21.90
2023-03-07T08:21:33.740Z,19.70
2023-03-07T08:24:02.369Z,19.40
2023-03-07T08:26:30.171Z,18.83
2023-03-07T08:28:59.712Z,21.50
2023-03-07T08:31:27.490Z,19.33
2023-03-07T08:33:55.178Z,21.33
2023-03-07T08:36:23.188Z,19.63
2023-03-07T08:38:52.489Z,16.35
2023-03-07T08:41:22.199Z,18.45
2023-03-07T08:43:50.132Z,21.23
2023-03-07T08:46:19.322Z,17.48
2023-03-07T08:48:47.047Z,17.42
2023-03-07T08:51:17.161Z,21.45
2023-03-07T08:53:47.382Z,20.23
2023-03-07T08:56:16.697Z,17.77
2023-03-07T08:58:44.585Z,19.85
2023-03-07T09:01:12.952Z,19.35
2023-03-07T09:03:43.419Z,17.33
2023-03-07T09:06:16.963Z,16.98
2023-03-07T09:08:44.844Z,16.98
2023-03-07T09:11:12.725Z,17.27
2023-03-07T09:13:51.045Z,19.45
2023-03-07T09:16:20.294Z,17.77
2023-03-07T09:18:49.446Z,16.92
2023-03-07T09:21:17.099Z,18.65
2023-03-07T09:23:45.049Z,18.10
2023-03-07T09:26:14.692Z,21.35
2023-03-07T09:28:42.636Z,16.55
2023-03-07T09:31:11.277Z,16.50
2023-03-07T09:33:39.046Z,19.92
2023-03-07T09:36:10.656Z,20.25
2023-03-07T09:38:38.755Z,15.68
2023-03-07T09:41:16.677Z,20.58
2023-03-07T09:43:49.762Z,18.85
2023-03-07T09:46:31.175Z,23.27
2023-03-07T09:49:18.630Z,20.33
2023-03-07T09:51:51.611Z,19.27
2023-03-07T09:54:22.658Z,18.17
2023-03-07T09:56:55.549Z,20.60
2023-03-07T09:59:32.608Z,19.35
2023-03-07T10:02:06.433Z,18.42
2023-03-07T10:04:44.206Z,22.33
2023-03-07T10:07:16.622Z,21.25
2023-03-07T10:09:45.815Z,22.48
2023-03-07T10:12:27.069Z,19.85
2023-03-07T10:15:06.356Z,21.63
2023-03-07T10:17:52.425Z,19.98
2023-03-07T10:20:25.474Z,17.98
2023-03-07T10:23:02.118Z,19.58
2023-03-07T10:25:33.242Z,18.85
2023-03-07T10:28:11.448Z,16.58
2023-03-07T10:30:39.182Z,17.25
2023-03-07T10:33:16.856Z,18.60
2023-03-07T10:35:48.895Z,16.80
2023-03-07T10:38:25.661Z,17.77
2023-03-07T10:40:56.183Z,18.13
2023-03-07T10:43:26.110Z,18.95
2023-03-07T10:45:59.777Z,19.77
2023-03-07T10:48:29.267Z,18.85
2023-03-07T10:51:07.981Z,19.50
2023-03-07T10:53:40.310Z,18.95
2023-03-07T10:56:14.442Z,17.75
2023-03-07T10:59:00.474Z,20.92
2023-03-07T11:04:00.527Z,17.33
2023-03-07T11:06:36.982Z,21.38
2023-03-07T11:09:17.791Z,18.52
2023-03-07T11:11:51.520Z,18.25
2023-03-07T11:14:21.801Z,18.33
2023-03-07T11:16:51.676Z,15.35
2023-03-07T11:19:35.489Z,18.63
2023-03-07T11:22:05.261Z,15.98
2023-03-07T11:24:39.540Z,16.17
2023-03-07T11:27:07.814Z,20.95
2023-03-07T11:29:35.570Z,20.77
2023-03-07T11:32:15.056Z,19.58
2023-03-07T11:34:47.204Z,19.63
2023-03-07T11:37:35.553Z,21.33
2023-03-07T11:40:20.007Z,18.52
2023-03-07T11:43:01.583Z,22.52
2023-03-07T11:45:35.693Z,18.98
2023-03-07T11:48:16.759Z,18.25
2023-03-07T11:50:51.898Z,19.17
2023-03-07T11:53:43.025Z,17.63
2023-03-07T11:56:25.641Z,17.25
2023-03-07T11:59:13.129Z,19.98
2023-03-07T12:01:48.350Z,18.83
2023-03-07T12:04:44.289Z,18.95
2023-03-07T12:07:28.378Z,21.48
2023-03-07T12:10:00.752Z,17.58
2023-03-07T12:12:50.344Z,19.02
2023-03-07T12:15:29.139Z,20.73
2023-03-07T12:18:12.931Z,21.15
2023-03-07T12:20:49.348Z,18.58
2023-03-07T12:23:23.139Z,20.10
2023-03-07T12:25:53.948Z,22.75
2023-03-07T12:28:28.798Z,20.48
2023-03-07T12:31:03.500Z,21.08
2023-03-07T12:33:48.513Z,18.45
2023-03-07T12:36:22.674Z,20.83
2023-03-07T12:38:55.691Z,20.35
2023-03-07T12:41:36.656Z,20.63
2023-03-07T12:44:11.721Z,19.75
2023-03-07T12:46:45.863Z,21.90
2023-03-07T12:49:18.340Z,19.85
2023-03-07T12:51:50.535Z,20.27
2023-03-07T12:54:25.182Z,18.35
2023-03-07T12:56:58.363Z,19.53
2023-03-07T12:59:30.164Z,19.90
2023-03-07T13:02:03.589Z,17.73
2023-03-07T13:04:34.585Z,19.40
2023-03-07T13:07:09.580Z,20.10
2023-03-07T13:09:40.431Z,20.15
2023-03-07T13:12:33.967Z,19.42
2023-03-07T13:15:04.005Z,17.70
2023-03-07T13:17:59.426Z,20.23
2023-03-07T13:20:40.193Z,19.42
2023-03-07T13:23:30.037Z,15.52
2023-03-07T13:26:19.783Z,16.65
2023-03-07T13:28:52.437Z,19.92
2023-03-07T13:31:45.720Z,17.02
2023-03-07T13:34:51.212Z,18.13
2023-03-07T13:37:50.018Z,15.70
2023-03-07T13:40:46.349Z,15.57
2023-03-07T13:44:02.096Z,19.23
2023-03-07T13:47:04.972Z,19.88
2023-03-07T13:49:35.636Z,19.13
2023-03-07T13:52:33.104Z,17.98
2023-03-07T13:55:03.016Z,18.42
2023-03-07T13:57:38.303Z,20.70
2023-03-07T14:00:35.394Z,16.48
2023-03-07T14:03:10.994Z,15.85
2023-03-07T14:05:38.893Z,14.82
2023-03-07T14:08:11.009Z,15.93
2023-03-07T14:10:40.189Z,15.95
2023-03-07T14:13:23.919Z,16.35
2023-03-07T14:16:06.990Z,16.10
2023-03-07T14:18:48.642Z,17.15
2023-03-07T14:21:28.067Z,20.63
2023-03-07T14:24:09.430Z,17.25
2023-03-07T14:26:40.126Z,15.18
2023-03-07T14:29:16.860Z,17.35
2023-03-07T14:31:45.205Z,16.35
2023-03-07T14:34:28.392Z,18.25
2023-03-07T14:36:58.681Z,16.10
2023-03-07T14:39:32.428Z,16.67
2023-03-07T14:42:12.388Z,17.02
2023-03-07T14:45:05.514Z,16.65
2023-03-07T14:47:46.882Z,17.80
2023-03-07T14:50:19.752Z,15.38
2023-03-07T14:52:49.725Z,18.67
2023-03-07T14:55:19.844Z,16.90
2023-03-07T14:57:49.867Z,18.60
2023-03-07T15:00:28.777Z,19.38
2023-03-07T15:02:58.176Z,19.95
2023-03-07T15:05:30.074Z,17.85
2023-03-07T15:07:57.830Z,18.50
2023-03-07T15:10:29.870Z,15.80
2023-03-07T15:12:58.759Z,18.50
2023-03-07T15:15:31.307Z,15.80
2023-03-07T15:18:05.126Z,16.45
2023-03-07T15:20:35.645Z,16.70
2023-03-07T15:23:07.502Z,15.98
2023-03-07T15:25:38.915Z,17.02
2023-03-07T15:28:19.688Z,15.55
2023-03-07T15:30:51.116Z,17.63
2023-03-07T15:33:25.995Z,19.67
2023-03-07T15:36:27.541Z,15.27
2023-03-07T15:39:24.938Z,20.58
2023-03-07T15:42:01.377Z,15.02
2023-03-07T15:44:29.147Z,16.77
2023-03-07T15:46:59.695Z,22.05
2023-03-07T15:49:32.143Z,15.68
2023-03-07T15:52:01.697Z,15.98
2023-03-07T15:54:40.380Z,16.85
2023-03-07T15:57:17.194Z,18.85
2023-03-07T15:59:51.280Z,16.65
2023-03-07T16:02:44.776Z,17.08
2023-03-07T16:05:36.054Z,17.45
2023-03-07T16:08:12.694Z,17.80
2023-03-07T16:10:46.557Z,16.45
2023-03-07T16:13:17.777Z,19.63
2023-03-07T16:15:45.746Z,15.93
2023-03-07T16:18:28.709Z,16.73
2023-03-07T16:20:56.840Z,15.95
2023-03-07T16:23:28.113Z,17.40
2023-03-07T16:25:56.350Z,18.95
2023-03-07T16:28:24.189Z,19.08
2023-03-07T16:30:51.939Z,18.30
2023-03-07T16:33:19.724Z,19.88
2023-03-07T16:35:47.725Z,16.17
2023-03-07T16:38:15.488Z,19.90
2023-03-07T16:40:46.094Z,18.00
2023-03-07T16:43:33.518Z,18.52
2023-03-07T16:46:02.506Z,17.83
2023-03-07T16:48:30.248Z,16.65
2023-03-07T16:50:58.137Z,17.13
2023-03-07T16:53:26.653Z,16.95
2023-03-07T16:55:57.076Z,18.00
2023-03-07T16:58:29.346Z,19.40
2023-03-07T17:00:59.003Z,18.05
2023-03-07T17:03:27.627Z,14.98
2023-03-07T17:05:55.372Z,16.08
2023-03-07T17:08:23.042Z,18.63
2023-03-07T17:10:52.173Z,15.77
2023-03-07T17:13:21.331Z,21.30
2023-03-07T17:15:49.970Z,15.55
2023-03-07T17:18:17.748Z,17.80
2023-03-07T17:20:45.478Z,21.33
2023-03-07T17:23:13.175Z,17.10
2023-03-07T17:25:41.403Z,19.00
2023-03-07T17:28:13.168Z,21.00
2023-03-07T17:30:45.002Z,20.27
2023-03-07T17:33:14.975Z,20.02
2023-03-07T17:35:42.871Z,17.95
2023-03-07T17:38:10.619Z,21.92
2023-03-07T17:40:38.741Z,21.55
2023-03-07T17:43:06.540Z,18.90
2023-03-07T17:45:34.261Z,18.92
2023-03-07T17:48:03.463Z,18.70
2023-03-07T17:50:31.184Z,18.13
2023-03-07T17:52:59.355Z,19.77
2023-03-07T17:55:27.066Z,17.48
2023-03-07T17:57:54.790Z,18.52
2023-03-07T18:00:23.635Z,18.15
2023-03-07T18:02:51.641Z,20.35
2023-03-07T18:05:21.046Z,21.52
2023-03-07T18:07:51.382Z,25.80
2023-03-07T18:10:19.175Z,26.15
2023-03-07T18:12:47.308Z,19.27
2023-03-07T18:15:17.301Z,18.27
2023-03-07T18:17:48.796Z,19.42
2023-03-07T18:20:18.058Z,28.60
2023-03-07T18:22:47.212Z,24.08
2023-03-07T18:25:16.652Z,21.88
2023-03-07T18:27:45.067Z,21.23
2023-03-07T18:30:14.146Z,21.65
2023-03-07T18:32:41.990Z,17.85
2023-03-07T18:35:10.678Z,21.20
2023-03-07T18:37:38.610Z,22.00
2023-03-07T18:40:09.455Z,22.80
2023-03-07T18:42:37.141Z,23.80
2023-03-07T18:45:05.201Z,22.92
2023-03-07T18:47:32.937Z,21.92
2023-03-07T18:50:00.623Z,18.85
2023-03-07T18:52:28.383Z,23.35
2023-03-07T18:54:56.066Z,20.00
2023-03-07T18:57:25.166Z,18.70
2023-03-07T18:59:52.908Z,20.50
2023-03-07T19:02:20.655Z,20.55
2023-03-07T19:04:48.461Z,18.48
2023-03-07T19:07:16.183Z,18.98
2023-03-07T19:09:44.997Z,18.88
2023-03-07T19:12:13.937Z,19.20
2023-03-07T19:14:43.263Z,21.00
2023-03-07T19:17:11.032Z,19.05
2023-03-07T19:19:38.856Z,18.75
2023-03-07T19:22:07.825Z,19.65
2023-03-07T19:24:35.611Z,20.55
2023-03-07T19:27:06.488Z,18.27
2023-03-07T19:29:34.919Z,20.45
2023-03-07T19:32:04.247Z,16.80
2023-03-07T19:34:32.223Z,18.38
2023-03-07T19:37:00.116Z,22.33
2023-03-07T19:39:27.921Z,17.27
2023-03-07T19:41:55.726Z,17.95
2023-03-07T19:44:23.489Z,22.50
2023-03-07T19:46:51.190Z,18.70
2023-03-07T19:49:20.596Z,18.77
2023-03-07T19:51:48.890Z,18.48
2023-03-07T19:54:16.628Z,19.13
2023-03-07T19:56:45.547Z,24.23
2023-03-07T19:59:13.795Z,23.80
2023-03-07T20:01:41.540Z,25.98
2023-03-07T20:04:10.233Z,25.70
2023-03-07T20:06:42.160Z,23.73
2023-03-07T20:09:12.832Z,24.52
2023-03-07T20:11:43.183Z,20.38
2023-03-07T20:14:12.458Z,23.00
2023-03-07T20:16:40.143Z,22.13
2023-03-07T20:19:10.068Z,26.77
2023-03-07T20:21:42.127Z,39.58
2023-03-07T20:24:10.172Z,38.88
2023-03-07T20:26:39.481Z,29.95
2023-03-07T20:29:08.547Z,29.98
2023-03-07T20:31:36.787Z,22.95
2023-03-07T20:34:05.214Z,24.73
2023-03-07T20:36:34.739Z,24.95
2023-03-07T20:39:07.641Z,29.35
2023-03-07T20:41:35.500Z,30.50
2023-03-07T20:44:05.661Z,25.15
2023-03-07T20:46:34.437Z,21.25
2023-03-07T20:49:03.061Z,24.63
2023-03-07T20:51:34.534Z,25.20
2023-03-07T20:54:06.236Z,22.02
2023-03-07T20:56:35.853Z,25.48
2023-03-07T20:59:03.689Z,25.20
2023-03-07T21:01:33.469Z,24.17
2023-03-07T21:04:06.106Z,22.08
2023-03-07T21:06:37.610Z,24.33
2023-03-07T21:09:10.098Z,22.38
2023-03-07T21:11:40.054Z,23.85
2023-03-07T21:14:08.296Z,19.73
2023-03-07T21:16:36.044Z,20.60
2023-03-07T21:19:06.010Z,20.60
2023-03-07T21:21:37.936Z,21.60
2023-03-07T21:24:08.489Z,24.80
2023-03-07T21:26:36.958Z,19.50
2023-03-07T21:29:08.819Z,23.42
2023-03-07T21:31:38.552Z,19.02
2023-03-07T21:34:08.660Z,25.23
2023-03-07T21:36:39.415Z,24.02
2023-03-07T21:39:09.898Z,24.02
2023-03-07T21:41:38.141Z,24.77
2023-03-07T21:44:06.077Z,24.02
2023-03-07T21:46:33.910Z,23.50
2023-03-07T21:49:02.733Z,23.42
2023-03-07T21:51:30.413Z,24.38
2023-03-07T21:53:58.952Z,23.85
2023-03-07T21:56:28.109Z,25.35
2023-03-07T21:58:55.829Z,23.50
2023-03-07T22:01:26.401Z,27.15
2023-03-07T22:03:55.292Z,24.05
2023-03-07T22:06:25.143Z,25.98
2023-03-07T22:08:52.854Z,23.48
2023-03-07T22:11:20.669Z,25.73
2023-03-07T22:13:50.002Z,23.50
2023-03-07T22:16:21.319Z,24.98
2023-03-07T22:18:55.944Z,24.58
2023-03-07T22:21:25.972Z,26.60
2023-03-07T22:23:57.510Z,23.70
2023-03-07T22:26:25.337Z,23.05
2023-03-07T22:28:55.096Z,24.67
2023-03-07T22:31:22.899Z,25.02
2023-03-07T22:33:50.605Z,26.02
2023-03-07T22:36:18.310Z,23.95
2023-03-07T22:38:45.983Z,25.85
2023-03-07T22:41:15.997Z,22.25
2023-03-07T22:43:43.893Z,25.10
2023-03-07T22:46:13.440Z,25.73
2023-03-07T22:48:41.842Z,25.45
2023-03-07T22:51:13.255Z,28.33
2023-03-07T22:53:40.933Z,28.80
2023-03-07T23:02:51.876Z,27.15
2023-03-07T23:05:23.064Z,27.85
2023-03-07T23:07:50.747Z,25.90
2023-03-07T23:10:18.687Z,25.38
2023-03-07T23:12:46.421Z,26.40
2023-03-07T23:15:14.060Z,24.40
2023-03-07T23:17:44.025Z,29.02
2023-03-07T23:20:12.715Z,23.90
2023-03-07T23:22:45.389Z,27.00
2023-03-07T23:25:16.500Z,27.25
2023-03-07T23:27:44.172Z,23.77
2023-03-07T23:30:12.450Z,26.50
2023-03-07T23:32:40.168Z,24.95
2023-03-07T23:35:10.144Z,25.63
2023-03-07T23:37:37.786Z,26.30
2023-03-07T23:40:06.663Z,21.88
2023-03-07T23:42:34.576Z,22.50
2023-03-07T23:45:02.217Z,22.50
2023-03-07T23:47:29.874Z,19.52
2023-03-07T23:49:57.488Z,21.90
2023-03-07T23:52:26.497Z,25.13
2023-03-07T23:54:54.175Z,21.95
2023-03-07T23:57:21.837Z,21.50
2023-03-07T23:59:50.164Z,21.75
